createdAt,value
2022-11-13T00:07:14.904Z,53.90
2022-11-13T00:17:35.647Z,61.10
2022-11-13T00:27:56.040Z,54.60
2022-11-13T00:38:16.504Z,55.60
2022-11-13T00:48:37.033Z,55.30
2022-11-13T00:58:57.740Z,56.10
2022-11-13T01:09:18.388Z,47.60
2022-11-13T01:19:38.829Z,54.90
2022-11-13T01:29:59.289Z,55.60
2022-11-13T01:40:19.500Z,56.30
2022-11-13T01:50:40.340Z,57.50
2022-11-13T02:01:01.253Z,56.30
2022-11-13T02:11:21.865Z,54.60
2022-11-13T02:22:10.243Z,58.50
2022-11-13T02:32:30.804Z,56.50
2022-11-13T02:42:51.109Z,53.70
2022-11-13T02:53:11.624Z,53.70
2022-11-13T03:03:56.629Z,53.00
2022-11-13T03:14:12.508Z,56.70
2022-11-13T03:24:32.710Z,52.70
2022-11-13T03:34:53.433Z,51.90
2022-11-13T03:45:13.826Z,46.30
2022-11-13T03:55:34.236Z,45.60
2022-11-13T04:05:54.647Z,47.50
2022-11-13T04:16:15.364Z,52.30
2022-11-13T04:26:35.681Z,51.80
2022-11-13T04:36:55.916Z,51.60
2022-11-13T04:47:16.547Z,49.80
2022-11-13T04:57:37.318Z,46.80
2022-11-13T05:07:57.813Z,44.00
2022-11-13T05:18:18.200Z,47.10
2022-11-13T05:28:38.872Z,50.40
2022-11-13T05:39:00.196Z,47.50
2022-11-13T05:49:20.780Z,53.70
2022-11-13T05:59:41.225Z,51.10
2022-11-13T06:10:01.775Z,48.50
2022-11-13T06:20:22.029Z,47.00
2022-11-13T06:30:42.380Z,45.80
2022-11-13T06:41:04.710Z,41.90
2022-11-13T06:51:27.720Z,42.20
2022-11-13T07:01:50.546Z,41.40
2022-11-13T07:12:10.860Z,43.60
2022-11-13T07:22:31.212Z,34.30
2022-11-13T07:32:51.833Z,34.90
2022-11-13T07:43:12.329Z,34.30
2022-11-13T07:53:32.807Z,26.90
2022-11-13T08:03:53.123Z,23.60
2022-11-13T08:14:13.462Z,21.20
2022-11-13T08:24:35.868Z,19.60
2022-11-13T08:34:56.347Z,19.20
2022-11-13T08:45:16.851Z,18.90
2022-11-13T08:55:37.173Z,20.50
2022-11-13T09:05:57.568Z,23.30
2022-11-13T09:16:17.983Z,23.50
2022-11-13T09:26:38.476Z,23.20
2022-11-13T09:36:59.054Z,21.60
2022-11-13T09:47:35.360Z,22.60
2022-11-13T09:58:22.847Z,20.30
2022-11-13T10:08:59.998Z,23.90
2022-11-13T10:19:33.909Z,22.60
2022-11-13T10:29:54.629Z,19.40
2022-11-13T10:40:29.742Z,18.50
2022-11-13T10:51:07.353Z,21.90
2022-11-13T11:01:28.691Z,24.70
2022-11-13T11:12:27.189Z,20.30
2022-11-13T11:22:57.142Z,18.60
2022-11-13T11:33:42.272Z,24.00
2022-11-13T11:44:14.196Z,23.10
2022-11-13T11:54:49.413Z,23.40
2022-11-13T12:05:57.190Z,26.90
2022-11-13T12:16:25.237Z,28.40
2022-11-13T12:26:55.878Z,25.70
2022-11-13T12:37:25.747Z,27.10
2022-11-13T12:47:49.188Z,26.20
2022-11-13T12:58:23.293Z,26.10
2022-11-13T13:09:18.141Z,26.90
2022-11-13T13:19:38.582Z,24.70
2022-11-13T13:29:58.988Z,25.40
2022-11-13T13:40:37.332Z,26.30
2022-11-13T13:51:00.453Z,29.10
2022-11-13T14:01:32.343Z,26.10
2022-11-13T14:12:09.363Z,28.40
2022-11-13T14:22:31.643Z,28.80
2022-11-13T14:32:53.030Z,26.80
2022-11-13T14:43:20.077Z,28.00
2022-11-13T14:53:41.812Z,31.50
2022-11-13T15:04:02.386Z,36.40
2022-11-13T15:14:22.650Z,39.50
2022-11-13T15:24:52.707Z,37.60
2022-11-13T15:35:16.832Z,45.10
2022-11-13T15:45:41.321Z,48.10
2022-11-13T15:56:05.849Z,42.10
2022-11-13T16:06:27.550Z,37.30
2022-11-13T16:16:50.035Z,32.60
2022-11-13T16:27:14.208Z,33.90
2022-11-13T16:37:34.887Z,32.00
2022-11-13T16:48:23.424Z,33.40
2022-11-13T16:58:44.257Z,35.30
2022-11-13T17:09:04.706Z,27.70
2022-11-13T17:19:25.277Z,32.10
2022-11-13T17:29:45.705Z,29.10
2022-11-13T17:40:07.497Z,31.30
2022-11-13T17:50:28.328Z,45.00
2022-11-13T18:01:07.278Z,32.90
2022-11-13T18:11:46.226Z,48.80
2022-11-13T18:22:09.069Z,38.30
2022-11-13T18:32:38.811Z,40.90
2022-11-13T18:42:59.487Z,35.80
2022-11-13T18:53:19.912Z,37.00
2022-11-13T19:14:43.468Z,32.40
2022-11-13T19:25:04.397Z,41.20
2022-11-13T19:35:25.843Z,33.60
2022-11-13T19:45:46.558Z,30.20
2022-11-13T19:56:20.987Z,29.30
2022-11-13T20:06:41.315Z,30.60
2022-11-13T20:17:02.880Z,28.30
2022-11-13T20:27:50.468Z,29.70
2022-11-13T20:38:10.960Z,27.10
2022-11-13T20:48:31.827Z,28.90
2022-11-13T20:58:53.159Z,26.60
2022-11-13T21:09:16.791Z,27.70
2022-11-13T21:19:37.089Z,26.70
2022-11-13T21:29:57.709Z,31.30
2022-11-13T21:40:18.072Z,30.80
2022-11-13T21:50:38.513Z,28.60
2022-11-13T22:01:00.431Z,28.60
2022-11-13T22:11:21.450Z,27.80
2022-11-13T22:21:42.884Z,23.10
2022-11-13T22:32:03.793Z,26.10
2022-11-13T22:42:24.146Z,24.40
2022-11-13T22:52:44.761Z,25.50
2022-11-13T23:03:05.289Z,26.70
2022-11-13T23:13:25.598Z,26.50
2022-11-13T23:23:46.009Z,33.00
2022-11-13T23:34:06.235Z,30.70
2022-11-13T23:44:26.816Z,31.30
2022-11-13T23:54:47.030Z,29.10
